createdAt,value
2019-05-02T07:08:14.266Z,10.40
2019-05-02T07:10:45.475Z,9.58
2019-05-02T07:13:18.479Z,9.08
2019-05-02T07:16:10.325Z,9.18
2019-05-02T07:18:47.394Z,9.05
2019-05-02T07:21:23.419Z,9.38
2019-05-02T07:23:53.518Z,9.40
2019-05-02T07:26:26.412Z,9.33
2019-05-02T07:28:57.261Z,9.93
2019-05-02T07:31:28.034Z,10.25
2019-05-02T07:34:08.029Z,9.95
2019-05-02T07:36:38.418Z,10.03
2019-05-02T07:39:10.863Z,10.10
2019-05-02T07:41:43.006Z,10.40
2019-05-02T07:44:15.465Z,10.28
2019-05-02T07:46:51.893Z,9.90
2019-05-02T07:49:21.005Z,10.38
2019-05-02T07:51:57.627Z,10.20
2019-05-02T07:56:57.541Z,11.55
2019-05-02T07:59:30.012Z,11.85
2019-05-02T08:02:02.452Z,12.33
2019-05-02T08:04:34.539Z,13.85
2019-05-02T08:07:05.678Z,14.95
2019-05-02T08:09:39.134Z,14.47
2019-05-02T08:12:10.426Z,14.25
2019-05-02T08:14:42.493Z,13.35
2019-05-02T08:17:16.979Z,12.13
2019-05-02T08:19:45.799Z,10.60
2019-05-02T08:22:16.732Z,10.75
2019-05-02T08:24:47.674Z,10.65
2019-05-02T08:27:24.156Z,10.35
2019-05-02T08:29:55.439Z,10.88
2019-05-02T08:32:27.682Z,11.22
2019-05-02T08:35:02.076Z,10.63
2019-05-02T08:37:40.697Z,10.20
2019-05-02T08:40:10.598Z,10.20
2019-05-02T08:42:41.021Z,10.03
2019-05-02T08:45:12.676Z,9.05
2019-05-02T08:47:44.740Z,8.60
2019-05-02T08:50:15.682Z,9.15
2019-05-02T08:52:48.162Z,7.80
2019-05-02T08:55:19.399Z,8.10
2019-05-02T08:57:50.132Z,8.18
2019-05-02T09:00:21.474Z,8.03
2019-05-02T09:02:52.309Z,8.08
2019-05-02T09:05:24.492Z,8.68
2019-05-02T09:07:55.338Z,9.20
2019-05-02T09:10:26.155Z,8.78
2019-05-02T09:13:02.632Z,9.78
2019-05-02T09:15:35.239Z,10.35
2019-05-02T09:18:06.676Z,9.75
2019-05-02T09:20:39.122Z,9.53
2019-05-02T09:23:12.412Z,10.18
2019-05-02T09:25:43.895Z,9.78
2019-05-02T09:28:17.063Z,9.78
2019-05-02T09:30:48.683Z,9.98
2019-05-02T09:33:20.050Z,8.73
2019-05-02T09:35:51.616Z,9.15
2019-05-02T09:38:23.975Z,8.63
2019-05-02T09:40:56.383Z,8.80
2019-05-02T09:43:29.277Z,8.98
2019-05-02T09:45:59.644Z,9.33
2019-05-02T09:48:32.114Z,10.20
2019-05-02T09:51:12.514Z,9.38
2019-05-02T09:53:37.264Z,9.87
2019-05-02T09:56:09.408Z,9.30
2019-05-02T09:58:42.049Z,9.78
2019-05-02T10:01:34.608Z,10.15
2019-05-02T10:04:08.127Z,7.85
2019-05-02T10:06:42.371Z,9.85
2019-05-02T10:09:12.694Z,10.30
2019-05-02T10:11:43.731Z,8.55
2019-05-02T10:14:15.385Z,10.55
2019-05-02T10:16:47.258Z,11.35
2019-05-02T10:19:25.898Z,11.60
2019-05-02T10:21:56.552Z,11.50
2019-05-02T10:24:27.775Z,12.10
2019-05-02T10:27:04.131Z,12.68
2019-05-02T10:29:33.723Z,14.18
2019-05-02T10:32:07.452Z,12.05
2019-05-02T10:34:42.196Z,10.93
2019-05-02T10:37:14.101Z,10.15
2019-05-02T10:39:47.795Z,10.32
2019-05-02T10:42:21.964Z,9.98
2019-05-02T10:44:53.461Z,10.45
2019-05-02T10:47:24.763Z,9.30
2019-05-02T10:49:57.978Z,8.90
2019-05-02T10:52:33.968Z,8.38
2019-05-02T10:55:02.757Z,7.78
2019-05-02T10:57:33.678Z,7.70
2019-05-02T11:00:13.704Z,7.72
2019-05-02T11:02:56.434Z,6.72
2019-05-02T11:05:28.712Z,5.50
2019-05-02T11:08:06.234Z,5.10
2019-05-02T11:10:38.767Z,4.53
2019-05-02T11:13:28.362Z,4.20
2019-05-02T11:16:17.416Z,5.58
2019-05-02T11:18:53.569Z,3.72
2019-05-02T11:21:24.743Z,3.75
2019-05-02T11:23:57.168Z,6.35
2019-05-02T11:26:28.118Z,7.47
2019-05-02T11:29:02.755Z,9.18
2019-05-02T11:31:32.767Z,10.68
2019-05-02T11:34:04.233Z,12.10
2019-05-02T11:36:36.324Z,13.45
2019-05-02T11:39:18.953Z,14.58
2019-05-02T11:41:42.857Z,13.88
2019-05-02T11:44:13.464Z,16.17
2019-05-02T11:46:46.942Z,12.00
2019-05-02T11:49:17.327Z,14.00
2019-05-02T11:51:52.618Z,13.60
2019-05-02T11:56:55.039Z,9.23
2019-05-02T11:59:27.975Z,9.60
2019-05-02T12:02:09.417Z,6.37
2019-05-02T12:04:47.316Z,4.50
2019-05-02T12:07:17.017Z,4.60
2019-05-02T12:09:55.458Z,4.35
2019-05-02T12:12:22.742Z,4.25
2019-05-02T12:14:56.600Z,3.92
2019-05-02T12:17:30.082Z,3.85
2019-05-02T12:20:02.448Z,3.12
2019-05-02T12:22:35.047Z,3.00
2019-05-02T12:25:07.198Z,2.60
2019-05-02T12:27:39.369Z,2.67
2019-05-02T12:30:13.252Z,2.90
2019-05-02T12:32:44.004Z,2.80
2019-05-02T12:35:15.769Z,3.58
2019-05-02T12:37:53.970Z,2.47
2019-05-02T12:40:24.060Z,2.62
2019-05-02T12:42:56.168Z,2.10
2019-05-02T12:45:28.129Z,2.00
2019-05-02T12:48:02.245Z,1.87
2019-05-02T12:50:34.892Z,2.00
2019-05-02T12:53:05.850Z,1.90
2019-05-02T12:55:38.543Z,1.52
2019-05-02T12:58:12.510Z,1.90
2019-05-02T13:00:43.657Z,2.00
2019-05-02T13:03:18.685Z,4.55
2019-05-02T13:05:52.124Z,4.25
2019-05-02T13:08:25.301Z,8.60
2019-05-02T13:11:02.093Z,5.10
2019-05-02T13:13:29.811Z,3.00
2019-05-02T13:16:03.500Z,2.83
2019-05-02T13:18:37.118Z,2.20
2019-05-02T13:21:13.388Z,2.47
2019-05-02T13:23:53.124Z,2.00
2019-05-02T13:26:27.237Z,1.80
2019-05-02T13:28:58.791Z,1.62
2019-05-02T13:31:33.923Z,2.40
2019-05-02T13:34:16.536Z,1.40
2019-05-02T13:36:52.899Z,2.00
2019-05-02T13:39:26.531Z,1.50
2019-05-02T13:41:57.125Z,1.80
2019-05-02T13:44:33.227Z,1.67
2019-05-02T13:47:05.954Z,1.72
2019-05-02T13:49:51.441Z,2.10
2019-05-02T13:52:16.424Z,1.87
2019-05-02T13:54:58.949Z,1.90
2019-05-02T13:57:35.057Z,2.77
2019-05-02T14:00:03.279Z,1.90
2019-05-02T14:02:42.802Z,2.20
2019-05-02T14:05:16.135Z,2.25
2019-05-02T14:07:57.094Z,2.50
2019-05-02T14:10:32.126Z,2.27
2019-05-02T14:13:03.685Z,2.27
2019-05-02T14:15:36.351Z,1.60
2019-05-02T14:18:08.188Z,2.20
2019-05-02T14:20:39.602Z,2.10
2019-05-02T14:23:12.842Z,3.02
2019-05-02T14:25:45.516Z,2.40
2019-05-02T14:28:16.864Z,2.02
2019-05-02T14:30:47.423Z,2.00
2019-05-02T14:33:26.734Z,2.15
2019-05-02T14:35:58.791Z,2.40
2019-05-02T14:38:32.012Z,2.33
2019-05-02T14:41:13.257Z,2.40
2019-05-02T14:43:54.032Z,2.60
2019-05-02T14:46:35.392Z,2.27
2019-05-02T14:49:02.937Z,2.35
2019-05-02T14:51:36.981Z,5.40
2019-05-02T14:54:09.587Z,4.10
2019-05-02T14:56:46.288Z,2.77
2019-05-02T14:59:19.876Z,3.00
2019-05-02T15:01:52.765Z,3.10
2019-05-02T15:04:24.793Z,2.67
2019-05-02T15:06:58.062Z,3.00
2019-05-02T15:09:32.666Z,2.65
2019-05-02T15:12:08.254Z,2.80
2019-05-02T15:14:49.729Z,2.87
2019-05-02T15:17:22.740Z,3.27
2019-05-02T15:19:55.488Z,3.13
2019-05-02T15:22:27.621Z,3.20
2019-05-02T15:25:00.137Z,3.40
2019-05-02T15:27:40.143Z,3.47
2019-05-02T15:30:08.146Z,3.85
2019-05-02T15:32:46.427Z,4.03
2019-05-02T15:35:29.375Z,3.70
2019-05-02T15:38:02.558Z,3.45
2019-05-02T15:40:48.139Z,3.55
2019-05-02T15:43:12.636Z,3.77
2019-05-02T15:45:45.225Z,4.10
2019-05-02T15:48:25.538Z,3.67
2019-05-02T15:50:54.590Z,3.87
2019-05-02T15:53:39.029Z,3.47
2019-05-02T15:56:18.763Z,4.00
2019-05-02T15:58:42.588Z,3.98
2019-05-02T16:01:18.891Z,3.42
2019-05-02T16:03:54.638Z,3.77
2019-05-02T16:06:31.744Z,4.78
2019-05-02T16:09:02.444Z,4.97
2019-05-02T16:11:34.821Z,6.17
2019-05-02T16:14:05.980Z,7.67
2019-05-02T16:16:40.776Z,6.30
2019-05-02T16:19:16.578Z,4.45
2019-05-02T16:21:53.624Z,4.40
2019-05-02T16:24:28.856Z,4.23
2019-05-02T16:27:01.607Z,4.03
2019-05-02T16:29:33.605Z,3.70
2019-05-02T16:32:09.326Z,3.40
2019-05-02T16:34:54.542Z,3.22
2019-05-02T16:37:24.469Z,4.55
2019-05-02T16:39:54.958Z,4.35
2019-05-02T16:42:26.100Z,4.72
2019-05-02T16:44:58.574Z,3.72
2019-05-02T16:47:29.318Z,3.47
2019-05-02T16:50:02.728Z,3.70
2019-05-02T16:52:38.053Z,4.70
2019-05-02T16:55:13.627Z,4.67
2019-05-02T16:57:42.393Z,4.00
2019-05-02T17:00:19.850Z,3.92
2019-05-02T17:02:51.364Z,4.10
2019-05-02T17:05:24.300Z,4.22
2019-05-02T17:07:59.385Z,4.12
2019-05-02T17:10:42.362Z,6.90
2019-05-02T17:13:14.830Z,7.80
2019-05-02T17:15:45.567Z,4.72
2019-05-02T17:18:18.251Z,4.37
2019-05-02T17:20:54.954Z,4.40
2019-05-02T17:23:24.829Z,4.95
2019-05-02T17:25:56.382Z,7.17
2019-05-02T17:28:28.346Z,7.78
2019-05-02T17:31:00.402Z,5.23
2019-05-02T17:33:32.428Z,9.73
2019-05-02T17:36:04.124Z,12.05
2019-05-02T17:38:39.048Z,13.45
2019-05-02T17:41:13.213Z,9.05
2019-05-02T17:43:45.916Z,8.75
2019-05-02T17:46:21.938Z,7.40
2019-05-02T17:48:53.988Z,7.45
2019-05-02T17:51:37.515Z,8.80
2019-05-02T17:54:08.799Z,6.10
2019-05-02T17:56:42.064Z,5.70
2019-05-02T17:59:17.069Z,5.90
2019-05-02T18:01:48.616Z,6.17
2019-05-02T18:04:21.538Z,6.60
2019-05-02T18:06:55.092Z,7.40
2019-05-02T18:09:26.320Z,7.60
2019-05-02T18:11:57.489Z,11.10
2019-05-02T18:14:30.197Z,16.05
2019-05-02T18:17:02.315Z,14.85
2019-05-02T18:19:35.585Z,19.62
2019-05-02T18:22:22.457Z,19.02
2019-05-02T18:24:46.472Z,17.85
2019-05-02T18:27:17.370Z,17.55
2019-05-02T18:29:51.533Z,21.42
2019-05-02T18:32:26.116Z,19.73
2019-05-02T18:35:04.330Z,28.70
2019-05-02T18:37:37.235Z,27.45
2019-05-02T18:40:07.809Z,24.15
2019-05-02T18:42:38.834Z,21.60
2019-05-02T18:45:28.572Z,18.53
2019-05-02T18:48:05.176Z,17.02
2019-05-02T18:50:46.375Z,17.67
2019-05-02T18:53:18.506Z,17.50
2019-05-02T18:55:51.833Z,18.15
2019-05-02T18:58:26.789Z,17.45
2019-05-02T19:00:58.090Z,17.10
2019-05-02T19:03:33.357Z,16.25
2019-05-02T19:06:03.957Z,15.50
2019-05-02T19:08:46.829Z,12.60
2019-05-02T19:11:12.625Z,10.88
2019-05-02T19:13:46.001Z,10.80
2019-05-02T19:16:23.865Z,11.10
2019-05-02T19:18:57.156Z,10.85
2019-05-02T19:21:30.833Z,9.80
2019-05-02T19:24:02.336Z,9.70
2019-05-02T19:26:35.417Z,8.48
2019-05-02T19:29:17.174Z,7.30
2019-05-02T19:31:47.528Z,6.58
2019-05-02T19:34:22.756Z,7.70
2019-05-02T19:36:52.886Z,6.20
2019-05-02T19:39:26.118Z,5.65
2019-05-02T19:42:01.621Z,5.75
2019-05-02T19:44:34.146Z,5.70
2019-05-02T19:47:08.448Z,5.20
2019-05-02T19:52:12.861Z,6.00
2019-05-02T19:54:43.757Z,5.47
2019-05-02T19:57:17.209Z,5.22
2019-05-02T19:59:49.057Z,5.65
2019-05-02T20:02:19.752Z,5.40
2019-05-02T20:04:52.060Z,5.55
2019-05-02T20:07:26.145Z,5.72
2019-05-02T20:09:59.235Z,7.00
2019-05-02T20:12:31.403Z,7.22
2019-05-02T20:15:03.872Z,6.08
2019-05-02T20:17:34.350Z,5.75
2019-05-02T20:20:14.449Z,6.53
2019-05-02T20:22:46.310Z,6.87
2019-05-02T20:25:17.143Z,7.03
2019-05-02T20:27:48.215Z,8.40
2019-05-02T20:30:22.502Z,7.30
2019-05-02T20:32:55.584Z,7.70
2019-05-02T20:35:28.270Z,7.78
2019-05-02T20:37:59.145Z,6.92
2019-05-02T20:40:33.432Z,6.62
2019-05-02T20:43:05.278Z,6.58
2019-05-02T20:45:37.353Z,6.08
2019-05-02T20:48:08.805Z,6.67
2019-05-02T20:50:43.004Z,6.28
2019-05-02T20:53:14.817Z,5.97
2019-05-02T20:55:45.491Z,6.03
2019-05-02T20:58:16.530Z,6.10
2019-05-02T21:01:04.750Z,5.33
2019-05-02T21:03:23.624Z,5.28
2019-05-02T21:06:06.299Z,4.80
2019-05-02T21:08:57.963Z,5.50
2019-05-02T21:11:29.910Z,5.35
2019-05-02T21:14:01.720Z,5.53
2019-05-02T21:16:35.993Z,5.13
2019-05-02T21:19:07.547Z,5.62
2019-05-02T21:21:42.528Z,5.65
2019-05-02T21:24:14.438Z,5.78
2019-05-02T21:26:46.305Z,5.45
2019-05-02T21:29:17.548Z,5.10
2019-05-02T21:31:51.966Z,5.33
2019-05-02T21:34:23.102Z,4.97
2019-05-02T21:36:53.972Z,5.35
2019-05-02T21:39:24.667Z,5.03
2019-05-02T21:41:57.755Z,5.40
2019-05-02T21:44:34.253Z,5.58
2019-05-02T21:47:05.941Z,5.37
2019-05-02T21:49:47.331Z,6.17
2019-05-02T21:52:22.581Z,6.65
2019-05-02T21:54:57.219Z,6.95
2019-05-02T21:57:27.854Z,6.97
2019-05-02T22:00:02.415Z,7.62
2019-05-02T22:02:34.031Z,6.62
2019-05-02T22:05:06.378Z,6.42
2019-05-02T22:07:37.168Z,7.25
2019-05-02T22:10:08.871Z,6.22
2019-05-02T22:12:39.326Z,6.85
2019-05-02T22:15:12.746Z,6.28
2019-05-02T22:17:45.089Z,6.37
2019-05-02T22:20:18.676Z,6.20
2019-05-02T22:22:52.031Z,7.12
2019-05-02T22:25:24.342Z,7.20
2019-05-02T22:27:55.451Z,6.78
2019-05-02T22:30:27.641Z,6.28
2019-05-02T22:33:02.666Z,6.08
2019-05-02T22:35:32.811Z,6.47
2019-05-02T22:38:24.621Z,6.45
2019-05-02T22:40:57.991Z,5.95
2019-05-02T22:46:00.920Z,7.05
2019-05-02T22:48:32.470Z,6.72
2019-05-02T22:51:05.152Z,7.05
2019-05-02T22:53:36.601Z,6.60
2019-05-02T22:56:13.214Z,6.97
2019-05-02T22:58:44.620Z,6.87
2019-05-02T23:01:16.273Z,7.12
2019-05-02T23:03:49.553Z,6.90
2019-05-02T23:06:22.456Z,7.17
2019-05-02T23:08:55.389Z,8.60
2019-05-02T23:11:27.805Z,7.42
2019-05-02T23:14:01.782Z,7.50
2019-05-02T23:16:34.648Z,7.45
2019-05-02T23:19:07.717Z,7.87
2019-05-02T23:21:41.917Z,7.90
2019-05-02T23:26:51.817Z,8.20
2019-05-02T23:29:24.128Z,7.62
2019-05-02T23:31:55.010Z,8.45
2019-05-02T23:34:27.060Z,8.68
2019-05-02T23:36:57.667Z,8.73
2019-05-02T23:39:28.883Z,8.58
2019-05-02T23:42:03.621Z,8.93
2019-05-02T23:44:35.171Z,9.70
2019-05-02T23:47:07.504Z,9.03
2019-05-02T23:49:38.529Z,8.40
2019-05-02T23:52:11.743Z,8.65
2019-05-02T23:54:50.087Z,9.58
2019-05-02T23:57:16.951Z,9.25
2019-05-02T23:59:51.794Z,9.10
